sensor_id;sensor_type;location;lat;lon;timestamp;P1;durP1;ratioP1;P2;durP2;ratioP2
17606;SDS011;8922;52.240;20.980;2022-10-18T00:01:06;12.95;;;9.57;;
17606;SDS011;8922;52.240;20.980;2022-10-18T00:03:34;11.30;;;9.98;;
17606;SDS011;8922;52.240;20.980;2022-10-18T00:06:01;13.63;;;8.97;;
17606;SDS011;8922;52.240;20.980;2022-10-18T00:08:29;11.70;;;8.90;;
17606;SDS011;8922;52.240;20.980;2022-10-18T00:10:56;13.67;;;9.03;;
17606;SDS011;8922;52.240;20.980;2022-10-18T00:13:23;10.80;;;9.23;;
17606;SDS011;8922;52.240;20.980;2022-10-18T00:15:50;10.90;;;8.20;;
17606;SDS011;8922;52.240;20.980;2022-10-18T00:18:20;12.27;;;8.60;;
17606;SDS011;8922;52.240;20.980;2022-10-18T00:20:55;10.37;;;8.03;;
17606;SDS011;8922;52.240;20.980;2022-10-18T00:23:23;11.57;;;7.50;;
17606;SDS011;8922;52.240;20.980;2022-10-18T00:25:57;13.43;;;7.60;;
17606;SDS011;8922;52.240;20.980;2022-10-18T00:28:24;11.57;;;8.40;;
17606;SDS011;8922;52.240;20.980;2022-10-18T00:30:51;13.57;;;8.57;;
17606;SDS011;8922;52.240;20.980;2022-10-18T00:33:19;9.90;;;7.87;;
17606;SDS011;8922;52.240;20.980;2022-10-18T00:35:46;12.00;;;8.10;;
17606;SDS011;8922;52.240;20.980;2022-10-18T00:38:13;9.43;;;7.63;;
17606;SDS011;8922;52.240;20.980;2022-10-18T00:40:40;11.80;;;7.53;;
17606;SDS011;8922;52.240;20.980;2022-10-18T00:43:07;10.70;;;7.43;;
17606;SDS011;8922;52.240;20.980;2022-10-18T00:45:40;12.03;;;7.60;;
17606;SDS011;8922;52.240;20.980;2022-10-18T00:48:07;11.75;;;7.68;;
17606;SDS011;8922;52.240;20.980;2022-10-18T00:50:35;9.20;;;7.50;;
17606;SDS011;8922;52.240;20.980;2022-10-18T00:53:02;11.67;;;7.60;;
17606;SDS011;8922;52.240;20.980;2022-10-18T00:55:33;11.50;;;7.73;;
17606;SDS011;8922;52.240;20.980;2022-10-18T00:58:00;10.97;;;7.17;;
17606;SDS011;8922;52.240;20.980;2022-10-18T01:00:28;12.00;;;8.07;;
17606;SDS011;8922;52.240;20.980;2022-10-18T01:02:55;8.27;;;6.67;;
17606;SDS011;8922;52.240;20.980;2022-10-18T01:05:23;8.13;;;7.00;;
17606;SDS011;8922;52.240;20.980;2022-10-18T01:08:02;8.67;;;6.77;;
17606;SDS011;8922;52.240;20.980;2022-10-18T01:10:41;7.50;;;6.47;;
17606;SDS011;8922;52.240;20.980;2022-10-18T01:13:17;10.40;;;6.53;;
17606;SDS011;8922;52.240;20.980;2022-10-18T01:15:57;13.00;;;6.97;;
17606;SDS011;8922;52.240;20.980;2022-10-18T01:18:27;9.47;;;6.30;;
17606;SDS011;8922;52.240;20.980;2022-10-18T01:21:09;10.43;;;6.95;;
17606;SDS011;8922;52.240;20.980;2022-10-18T01:26:47;7.77;;;6.50;;
17606;SDS011;8922;52.240;20.980;2022-10-18T01:29:36;10.10;;;6.65;;
17606;SDS011;8922;52.240;20.980;2022-10-18T01:32:17;8.03;;;6.20;;
17606;SDS011;8922;52.240;20.980;2022-10-18T01:34:46;7.57;;;6.13;;
17606;SDS011;8922;52.240;20.980;2022-10-18T01:37:16;8.93;;;5.88;;
17606;SDS011;8922;52.240;20.980;2022-10-18T01:39:45;9.00;;;6.17;;
17606;SDS011;8922;52.240;20.980;2022-10-18T01:42:16;7.50;;;6.22;;
17606;SDS011;8922;52.240;20.980;2022-10-18T01:44:45;11.27;;;6.30;;
17606;SDS011;8922;52.240;20.980;2022-10-18T01:47:13;8.83;;;6.30;;
17606;SDS011;8922;52.240;20.980;2022-10-18T01:49:42;9.97;;;6.03;;
17606;SDS011;8922;52.240;20.980;2022-10-18T01:52:09;8.63;;;5.80;;
17606;SDS011;8922;52.240;20.980;2022-10-18T01:54:39;7.88;;;6.25;;
17606;SDS011;8922;52.240;20.980;2022-10-18T01:57:08;11.93;;;6.23;;
17606;SDS011;8922;52.240;20.980;2022-10-18T01:59:45;9.30;;;6.17;;
17606;SDS011;8922;52.240;20.980;2022-10-18T02:02:25;9.77;;;5.82;;
17606;SDS011;8922;52.240;20.980;2022-10-18T02:05:04;11.77;;;6.07;;
17606;SDS011;8922;52.240;20.980;2022-10-18T02:07:38;6.80;;;5.47;;
17606;SDS011;8922;52.240;20.980;2022-10-18T02:10:10;9.47;;;6.10;;
17606;SDS011;8922;52.240;20.980;2022-10-18T02:12:40;8.57;;;5.20;;
17606;SDS011;8922;52.240;20.980;2022-10-18T02:15:09;11.23;;;6.20;;
17606;SDS011;8922;52.240;20.980;2022-10-18T02:17:40;7.87;;;5.70;;
17606;SDS011;8922;52.240;20.980;2022-10-18T02:20:12;8.03;;;5.80;;
17606;SDS011;8922;52.240;20.980;2022-10-18T02:22:44;9.57;;;5.67;;
17606;SDS011;8922;52.240;20.980;2022-10-18T02:25:15;10.80;;;5.55;;
17606;SDS011;8922;52.240;20.980;2022-10-18T02:27:44;6.87;;;5.20;;
17606;SDS011;8922;52.240;20.980;2022-10-18T02:30:11;6.43;;;5.10;;
17606;SDS011;8922;52.240;20.980;2022-10-18T02:32:40;7.80;;;5.23;;
17606;SDS011;8922;52.240;20.980;2022-10-18T02:35:14;10.63;;;5.67;;
17606;SDS011;8922;52.240;20.980;2022-10-18T02:37:47;8.07;;;5.13;;
17606;SDS011;8922;52.240;20.980;2022-10-18T02:40:15;10.97;;;5.53;;
17606;SDS011;8922;52.240;20.980;2022-10-18T02:42:43;7.57;;;5.63;;
17606;SDS011;8922;52.240;20.980;2022-10-18T02:45:12;9.13;;;5.70;;
17606;SDS011;8922;52.240;20.980;2022-10-18T02:47:39;7.50;;;5.47;;
17606;SDS011;8922;52.240;20.980;2022-10-18T02:50:07;6.97;;;5.50;;
17606;SDS011;8922;52.240;20.980;2022-10-18T02:52:35;7.77;;;5.47;;
17606;SDS011;8922;52.240;20.980;2022-10-18T02:55:03;6.97;;;5.63;;
17606;SDS011;8922;52.240;20.980;2022-10-18T02:57:31;7.20;;;5.93;;
17606;SDS011;8922;52.240;20.980;2022-10-18T02:59:57;8.07;;;5.43;;
17606;SDS011;8922;52.240;20.980;2022-10-18T03:02:24;11.13;;;5.30;;
17606;SDS011;8922;52.240;20.980;2022-10-18T03:04:51;9.37;;;5.53;;
17606;SDS011;8922;52.240;20.980;2022-10-18T03:07:18;8.30;;;5.90;;
17606;SDS011;8922;52.240;20.980;2022-10-18T03:09:46;8.87;;;5.40;;
17606;SDS011;8922;52.240;20.980;2022-10-18T03:12:13;8.07;;;5.17;;
17606;SDS011;8922;52.240;20.980;2022-10-18T03:14:40;9.30;;;5.80;;
17606;SDS011;8922;52.240;20.980;2022-10-18T03:17:06;6.23;;;5.00;;
17606;SDS011;8922;52.240;20.980;2022-10-18T03:19:33;7.50;;;5.40;;
17606;SDS011;8922;52.240;20.980;2022-10-18T03:22:00;7.27;;;5.07;;
17606;SDS011;8922;52.240;20.980;2022-10-18T03:24:27;9.77;;;5.50;;
17606;SDS011;8922;52.240;20.980;2022-10-18T03:26:55;8.40;;;5.33;;
17606;SDS011;8922;52.240;20.980;2022-10-18T03:29:21;8.40;;;5.40;;
17606;SDS011;8922;52.240;20.980;2022-10-18T03:31:48;8.33;;;5.00;;
17606;SDS011;8922;52.240;20.980;2022-10-18T03:34:15;8.20;;;5.57;;
17606;SDS011;8922;52.240;20.980;2022-10-18T03:36:42;6.63;;;5.03;;
17606;SDS011;8922;52.240;20.980;2022-10-18T03:39:10;6.60;;;5.50;;
17606;SDS011;8922;52.240;20.980;2022-10-18T03:41:37;7.03;;;5.13;;
17606;SDS011;8922;52.240;20.980;2022-10-18T03:44:05;8.40;;;5.40;;
17606;SDS011;8922;52.240;20.980;2022-10-18T03:46:32;6.77;;;4.80;;
17606;SDS011;8922;52.240;20.980;2022-10-18T03:48:58;6.67;;;5.13;;
17606;SDS011;8922;52.240;20.980;2022-10-18T03:51:25;6.07;;;5.27;;
17606;SDS011;8922;52.240;20.980;2022-10-18T03:53:52;10.13;;;5.67;;
17606;SDS011;8922;52.240;20.980;2022-10-18T03:56:18;7.00;;;5.43;;
17606;SDS011;8922;52.240;20.980;2022-10-18T03:58:45;6.67;;;4.87;;
17606;SDS011;8922;52.240;20.980;2022-10-18T04:01:13;8.33;;;4.83;;
17606;SDS011;8922;52.240;20.980;2022-10-18T04:03:40;6.17;;;4.53;;
17606;SDS011;8922;52.240;20.980;2022-10-18T04:06:07;5.70;;;5.03;;
17606;SDS011;8922;52.240;20.980;2022-10-18T04:08:34;7.57;;;5.30;;
17606;SDS011;8922;52.240;20.980;2022-10-18T04:11:03;7.60;;;4.90;;
17606;SDS011;8922;52.240;20.980;2022-10-18T04:13:32;8.70;;;4.63;;
17606;SDS011;8922;52.240;20.980;2022-10-18T04:15:59;6.10;;;5.10;;
17606;SDS011;8922;52.240;20.980;2022-10-18T04:18:27;8.87;;;5.30;;
17606;SDS011;8922;52.240;20.980;2022-10-18T04:20:54;7.57;;;5.30;;
17606;SDS011;8922;52.240;20.980;2022-10-18T04:23:20;5.60;;;4.90;;
17606;SDS011;8922;52.240;20.980;2022-10-18T04:25:47;6.73;;;5.33;;
17606;SDS011;8922;52.240;20.980;2022-10-18T04:28:14;10.33;;;5.07;;
17606;SDS011;8922;52.240;20.980;2022-10-18T04:30:41;6.90;;;4.80;;
17606;SDS011;8922;52.240;20.980;2022-10-18T04:33:07;5.47;;;4.40;;
17606;SDS011;8922;52.240;20.980;2022-10-18T04:35:35;7.07;;;4.90;;
17606;SDS011;8922;52.240;20.980;2022-10-18T04:38:02;7.23;;;4.53;;
17606;SDS011;8922;52.240;20.980;2022-10-18T04:40:29;6.67;;;4.70;;
17606;SDS011;8922;52.240;20.980;2022-10-18T04:42:56;9.33;;;5.20;;
17606;SDS011;8922;52.240;20.980;2022-10-18T04:45:23;11.10;;;5.10;;
17606;SDS011;8922;52.240;20.980;2022-10-18T04:47:49;5.80;;;4.93;;
17606;SDS011;8922;52.240;20.980;2022-10-18T04:50:16;6.60;;;4.37;;
17606;SDS011;8922;52.240;20.980;2022-10-18T04:52:45;7.83;;;5.30;;
17606;SDS011;8922;52.240;20.980;2022-10-18T04:55:11;13.43;;;4.60;;
17606;SDS011;8922;52.240;20.980;2022-10-18T04:57:38;5.90;;;4.83;;
17606;SDS011;8922;52.240;20.980;2022-10-18T05:00:05;6.00;;;5.10;;
17606;SDS011;8922;52.240;20.980;2022-10-18T05:02:32;7.33;;;4.97;;
17606;SDS011;8922;52.240;20.980;2022-10-18T05:04:59;6.47;;;4.80;;
17606;SDS011;8922;52.240;20.980;2022-10-18T05:07:26;9.67;;;5.43;;
17606;SDS011;8922;52.240;20.980;2022-10-18T05:09:54;6.03;;;5.17;;
17606;SDS011;8922;52.240;20.980;2022-10-18T05:12:21;7.07;;;5.33;;
17606;SDS011;8922;52.240;20.980;2022-10-18T05:14:48;7.60;;;4.93;;
17606;SDS011;8922;52.240;20.980;2022-10-18T05:17:15;7.63;;;4.93;;
17606;SDS011;8922;52.240;20.980;2022-10-18T05:19:42;7.93;;;4.80;;
17606;SDS011;8922;52.240;20.980;2022-10-18T05:22:09;7.93;;;6.07;;
17606;SDS011;8922;52.240;20.980;2022-10-18T05:24:35;8.60;;;5.40;;
17606;SDS011;8922;52.240;20.980;2022-10-18T05:27:04;9.13;;;5.77;;
17606;SDS011;8922;52.240;20.980;2022-10-18T05:29:30;8.57;;;5.37;;
17606;SDS011;8922;52.240;20.980;2022-10-18T05:31:57;10.70;;;5.00;;
17606;SDS011;8922;52.240;20.980;2022-10-18T05:34:24;5.97;;;4.93;;
17606;SDS011;8922;52.240;20.980;2022-10-18T05:36:51;6.17;;;4.97;;
17606;SDS011;8922;52.240;20.980;2022-10-18T05:39:18;7.07;;;5.27;;
17606;SDS011;8922;52.240;20.980;2022-10-18T05:41:44;7.80;;;5.53;;
17606;SDS011;8922;52.240;20.980;2022-10-18T05:44:13;9.97;;;5.80;;
17606;SDS011;8922;52.240;20.980;2022-10-18T05:46:40;6.50;;;4.90;;
17606;SDS011;8922;52.240;20.980;2022-10-18T05:49:07;6.37;;;5.17;;
17606;SDS011;8922;52.240;20.980;2022-10-18T05:51:35;7.27;;;5.03;;
17606;SDS011;8922;52.240;20.980;2022-10-18T05:54:02;7.27;;;5.63;;
17606;SDS011;8922;52.240;20.980;2022-10-18T05:56:29;7.97;;;5.27;;
17606;SDS011;8922;52.240;20.980;2022-10-18T05:58:56;10.53;;;5.80;;
17606;SDS011;8922;52.240;20.980;2022-10-18T06:01:24;8.97;;;5.90;;
17606;SDS011;8922;52.240;20.980;2022-10-18T06:03:51;10.80;;;5.63;;
17606;SDS011;8922;52.240;20.980;2022-10-18T06:06:17;7.10;;;5.43;;
17606;SDS011;8922;52.240;20.980;2022-10-18T06:08:47;7.37;;;5.27;;
17606;SDS011;8922;52.240;20.980;2022-10-18T06:11:17;8.90;;;5.83;;
17606;SDS011;8922;52.240;20.980;2022-10-18T06:13:45;7.97;;;5.77;;
17606;SDS011;8922;52.240;20.980;2022-10-18T06:16:13;6.50;;;4.83;;
17606;SDS011;8922;52.240;20.980;2022-10-18T06:18:46;8.80;;;6.00;;
17606;SDS011;8922;52.240;20.980;2022-10-18T06:21:13;10.53;;;5.60;;
17606;SDS011;8922;52.240;20.980;2022-10-18T06:23:41;9.23;;;5.70;;
17606;SDS011;8922;52.240;20.980;2022-10-18T06:26:09;14.37;;;6.17;;
17606;SDS011;8922;52.240;20.980;2022-10-18T06:28:36;9.50;;;5.73;;
17606;SDS011;8922;52.240;20.980;2022-10-18T06:31:04;7.17;;;5.17;;
17606;SDS011;8922;52.240;20.980;2022-10-18T06:33:32;11.18;;;5.95;;
17606;SDS011;8922;52.240;20.980;2022-10-18T06:36:01;10.57;;;5.73;;
17606;SDS011;8922;52.240;20.980;2022-10-18T06:38:30;10.07;;;5.55;;
17606;SDS011;8922;52.240;20.980;2022-10-18T06:40:56;10.25;;;5.90;;
17606;SDS011;8922;52.240;20.980;2022-10-18T06:43:24;7.60;;;5.60;;
17606;SDS011;8922;52.240;20.980;2022-10-18T06:45:51;9.38;;;5.72;;
17606;SDS011;8922;52.240;20.980;2022-10-18T06:48:18;6.82;;;5.50;;
17606;SDS011;8922;52.240;20.980;2022-10-18T06:50:49;15.55;;;5.82;;
17606;SDS011;8922;52.240;20.980;2022-10-18T06:53:18;10.10;;;6.03;;
17606;SDS011;8922;52.240;20.980;2022-10-18T06:55:45;12.77;;;5.60;;
17606;SDS011;8922;52.240;20.980;2022-10-18T06:58:12;11.38;;;6.18;;
17606;SDS011;8922;52.240;20.980;2022-10-18T07:00:39;10.23;;;5.70;;
17606;SDS011;8922;52.240;20.980;2022-10-18T07:03:06;9.18;;;6.13;;
17606;SDS011;8922;52.240;20.980;2022-10-18T07:05:32;8.02;;;6.40;;
17606;SDS011;8922;52.240;20.980;2022-10-18T07:07:59;9.65;;;6.25;;
17606;SDS011;8922;52.240;20.980;2022-10-18T07:10:28;7.15;;;5.85;;
17606;SDS011;8922;52.240;20.980;2022-10-18T07:12:54;9.63;;;5.93;;
17606;SDS011;8922;52.240;20.980;2022-10-18T07:15:21;6.65;;;5.70;;
17606;SDS011;8922;52.240;20.980;2022-10-18T07:17:48;9.23;;;6.13;;
17606;SDS011;8922;52.240;20.980;2022-10-18T07:20:15;13.13;;;6.13;;
17606;SDS011;8922;52.240;20.980;2022-10-18T07:22:42;7.28;;;5.85;;
17606;SDS011;8922;52.240;20.980;2022-10-18T07:25:09;9.70;;;6.03;;
17606;SDS011;8922;52.240;20.980;2022-10-18T07:27:37;11.60;;;6.18;;
17606;SDS011;8922;52.240;20.980;2022-10-18T07:30:05;12.10;;;7.65;;
17606;SDS011;8922;52.240;20.980;2022-10-18T07:32:32;8.70;;;6.50;;
17606;SDS011;8922;52.240;20.980;2022-10-18T07:34:59;12.40;;;6.10;;
17606;SDS011;8922;52.240;20.980;2022-10-18T07:37:27;9.82;;;5.93;;
17606;SDS011;8922;52.240;20.980;2022-10-18T07:39:53;11.43;;;6.97;;
17606;SDS011;8922;52.240;20.980;2022-10-18T07:42:20;8.93;;;6.00;;
17606;SDS011;8922;52.240;20.980;2022-10-18T07:44:48;7.57;;;6.57;;
17606;SDS011;8922;52.240;20.980;2022-10-18T07:47:15;10.18;;;6.43;;
17606;SDS011;8922;52.240;20.980;2022-10-18T07:49:42;9.48;;;5.88;;
17606;SDS011;8922;52.240;20.980;2022-10-18T07:52:09;12.15;;;6.20;;
17606;SDS011;8922;52.240;20.980;2022-10-18T07:54:36;10.38;;;6.22;;
17606;SDS011;8922;52.240;20.980;2022-10-18T07:57:02;8.45;;;6.45;;
17606;SDS011;8922;52.240;20.980;2022-10-18T07:59:29;9.48;;;6.45;;
17606;SDS011;8922;52.240;20.980;2022-10-18T08:01:57;11.85;;;6.22;;
17606;SDS011;8922;52.240;20.980;2022-10-18T08:04:24;10.20;;;6.57;;
17606;SDS011;8922;52.240;20.980;2022-10-18T08:06:51;8.73;;;6.47;;
17606;SDS011;8922;52.240;20.980;2022-10-18T08:09:17;10.20;;;6.13;;
17606;SDS011;8922;52.240;20.980;2022-10-18T08:11:44;11.68;;;7.18;;
17606;SDS011;8922;52.240;20.980;2022-10-18T08:14:11;16.55;;;7.80;;
17606;SDS011;8922;52.240;20.980;2022-10-18T08:16:38;12.65;;;6.20;;
17606;SDS011;8922;52.240;20.980;2022-10-18T08:19:06;7.13;;;6.18;;
17606;SDS011;8922;52.240;20.980;2022-10-18T08:21:32;11.15;;;7.50;;
17606;SDS011;8922;52.240;20.980;2022-10-18T08:23:59;11.35;;;6.70;;
17606;SDS011;8922;52.240;20.980;2022-10-18T08:26:26;9.88;;;7.18;;
17606;SDS011;8922;52.240;20.980;2022-10-18T08:28:53;7.65;;;6.80;;
17606;SDS011;8922;52.240;20.980;2022-10-18T08:31:20;10.82;;;7.03;;
17606;SDS011;8922;52.240;20.980;2022-10-18T08:33:47;7.70;;;6.35;;
17606;SDS011;8922;52.240;20.980;2022-10-18T08:36:15;13.18;;;7.28;;
17606;SDS011;8922;52.240;20.980;2022-10-18T08:38:42;11.73;;;7.30;;
17606;SDS011;8922;52.240;20.980;2022-10-18T08:41:16;8.75;;;6.50;;
17606;SDS011;8922;52.240;20.980;2022-10-18T08:43:55;7.82;;;6.97;;
17606;SDS011;8922;52.240;20.980;2022-10-18T08:46:30;11.45;;;7.18;;
17606;SDS011;8922;52.240;20.980;2022-10-18T08:48:58;9.93;;;7.13;;
17606;SDS011;8922;52.240;20.980;2022-10-18T08:51:29;10.93;;;7.78;;
17606;SDS011;8922;52.240;20.980;2022-10-18T08:54:01;12.25;;;7.07;;
17606;SDS011;8922;52.240;20.980;2022-10-18T08:56:31;9.20;;;6.78;;
17606;SDS011;8922;52.240;20.980;2022-10-18T08:59:00;11.02;;;7.00;;
17606;SDS011;8922;52.240;20.980;2022-10-18T09:01:30;7.18;;;6.13;;
17606;SDS011;8922;52.240;20.980;2022-10-18T09:04:22;13.52;;;7.75;;
17606;SDS011;8922;52.240;20.980;2022-10-18T09:07:08;8.25;;;7.32;;
17606;SDS011;8922;52.240;20.980;2022-10-18T09:09:51;13.43;;;7.38;;
17606;SDS011;8922;52.240;20.980;2022-10-18T09:12:34;14.02;;;7.30;;
17606;SDS011;8922;52.240;20.980;2022-10-18T09:15:15;10.88;;;7.68;;
17606;SDS011;8922;52.240;20.980;2022-10-18T09:17:48;9.82;;;7.68;;
17606;SDS011;8922;52.240;20.980;2022-10-18T09:20:25;10.77;;;8.13;;
17606;SDS011;8922;52.240;20.980;2022-10-18T09:22:55;12.95;;;7.57;;
17606;SDS011;8922;52.240;20.980;2022-10-18T09:25:30;14.68;;;7.28;;
17606;SDS011;8922;52.240;20.980;2022-10-18T09:28:06;9.30;;;7.68;;
17606;SDS011;8922;52.240;20.980;2022-10-18T09:30:42;8.32;;;7.53;;
17606;SDS011;8922;52.240;20.980;2022-10-18T09:33:28;10.35;;;7.78;;
17606;SDS011;8922;52.240;20.980;2022-10-18T09:36:04;10.48;;;7.55;;
17606;SDS011;8922;52.240;20.980;2022-10-18T09:38:36;12.40;;;8.50;;
17606;SDS011;8922;52.240;20.980;2022-10-18T09:41:09;11.80;;;8.10;;
17606;SDS011;8922;52.240;20.980;2022-10-18T09:43:44;12.48;;;8.25;;
17606;SDS011;8922;52.240;20.980;2022-10-18T09:46:15;9.40;;;7.68;;
17606;SDS011;8922;52.240;20.980;2022-10-18T09:48:45;11.13;;;8.50;;
17606;SDS011;8922;52.240;20.980;2022-10-18T09:51:16;15.50;;;8.55;;
17606;SDS011;8922;52.240;20.980;2022-10-18T09:54:01;9.43;;;7.93;;
17606;SDS011;8922;52.240;20.980;2022-10-18T09:56:43;10.00;;;7.82;;
17606;SDS011;8922;52.240;20.980;2022-10-18T09:59:20;12.32;;;9.00;;
17606;SDS011;8922;52.240;20.980;2022-10-18T10:01:57;9.77;;;8.02;;
17606;SDS011;8922;52.240;20.980;2022-10-18T10:04:24;11.13;;;9.35;;
17606;SDS011;8922;52.240;20.980;2022-10-18T10:06:51;10.70;;;8.30;;
17606;SDS011;8922;52.240;20.980;2022-10-18T10:09:23;11.10;;;8.75;;
17606;SDS011;8922;52.240;20.980;2022-10-18T10:11:54;11.23;;;8.10;;
17606;SDS011;8922;52.240;20.980;2022-10-18T10:14:22;9.35;;;8.38;;
17606;SDS011;8922;52.240;20.980;2022-10-18T10:16:51;9.00;;;8.07;;
17606;SDS011;8922;52.240;20.980;2022-10-18T10:19:23;10.90;;;8.65;;
17606;SDS011;8922;52.240;20.980;2022-10-18T10:21:54;10.68;;;9.40;;
17606;SDS011;8922;52.240;20.980;2022-10-18T10:24:25;12.68;;;9.10;;
17606;SDS011;8922;52.240;20.980;2022-10-18T10:27:14;13.25;;;9.40;;
17606;SDS011;8922;52.240;20.980;2022-10-18T10:29:52;11.07;;;9.68;;
17606;SDS011;8922;52.240;20.980;2022-10-18T10:32:22;14.43;;;9.15;;
17606;SDS011;8922;52.240;20.980;2022-10-18T10:34:54;12.02;;;8.60;;
17606;SDS011;8922;52.240;20.980;2022-10-18T10:40:18;11.85;;;9.13;;
17606;SDS011;8922;52.240;20.980;2022-10-18T10:42:50;15.38;;;8.90;;
17606;SDS011;8922;52.240;20.980;2022-10-18T10:45:20;16.50;;;9.00;;
17606;SDS011;8922;52.240;20.980;2022-10-18T10:47:48;12.50;;;8.93;;
17606;SDS011;8922;52.240;20.980;2022-10-18T10:50:21;15.38;;;8.93;;
17606;SDS011;8922;52.240;20.980;2022-10-18T10:52:50;12.32;;;9.93;;
17606;SDS011;8922;52.240;20.980;2022-10-18T10:55:19;13.70;;;10.35;;
17606;SDS011;8922;52.240;20.980;2022-10-18T10:57:51;11.13;;;9.63;;
17606;SDS011;8922;52.240;20.980;2022-10-18T11:00:35;15.93;;;10.68;;
17606;SDS011;8922;52.240;20.980;2022-10-18T11:03:05;10.73;;;9.45;;
17606;SDS011;8922;52.240;20.980;2022-10-18T11:05:41;10.55;;;9.43;;
17606;SDS011;8922;52.240;20.980;2022-10-18T11:08:10;13.50;;;9.13;;
17606;SDS011;8922;52.240;20.980;2022-10-18T11:10:41;10.32;;;9.20;;
17606;SDS011;8922;52.240;20.980;2022-10-18T11:13:21;12.75;;;9.52;;
17606;SDS011;8922;52.240;20.980;2022-10-18T11:15:56;12.77;;;10.73;;
17606;SDS011;8922;52.240;20.980;2022-10-18T11:18:29;11.13;;;8.52;;
17606;SDS011;8922;52.240;20.980;2022-10-18T11:21:00;10.77;;;9.68;;
17606;SDS011;8922;52.240;20.980;2022-10-18T11:23:32;11.95;;;10.18;;
17606;SDS011;8922;52.240;20.980;2022-10-18T11:29:13;21.08;;;10.70;;
17606;SDS011;8922;52.240;20.980;2022-10-18T11:32:00;13.45;;;10.55;;
17606;SDS011;8922;52.240;20.980;2022-10-18T11:37:32;13.00;;;10.23;;
17606;SDS011;8922;52.240;20.980;2022-10-18T11:40:14;12.00;;;10.57;;
17606;SDS011;8922;52.240;20.980;2022-10-18T11:42:58;14.02;;;10.38;;
17606;SDS011;8922;52.240;20.980;2022-10-18T11:45:32;13.45;;;10.30;;
17606;SDS011;8922;52.240;20.980;2022-10-18T11:48:11;13.18;;;10.00;;
17606;SDS011;8922;52.240;20.980;2022-10-18T11:50:50;12.38;;;11.07;;
17606;SDS011;8922;52.240;20.980;2022-10-18T11:53:27;14.55;;;10.70;;
17606;SDS011;8922;52.240;20.980;2022-10-18T11:56:05;11.38;;;10.00;;
17606;SDS011;8922;52.240;20.980;2022-10-18T11:58:48;14.77;;;10.38;;
17606;SDS011;8922;52.240;20.980;2022-10-18T12:01:28;15.70;;;10.80;;
17606;SDS011;8922;52.240;20.980;2022-10-18T12:04:02;12.15;;;10.13;;
17606;SDS011;8922;52.240;20.980;2022-10-18T12:06:35;14.02;;;11.55;;
17606;SDS011;8922;52.240;20.980;2022-10-18T12:09:08;16.23;;;11.05;;
17606;SDS011;8922;52.240;20.980;2022-10-18T12:11:42;12.27;;;10.98;;
17606;SDS011;8922;52.240;20.980;2022-10-18T12:14:18;14.38;;;11.65;;
17606;SDS011;8922;52.240;20.980;2022-10-18T12:16:50;13.90;;;11.32;;
17606;SDS011;8922;52.240;20.980;2022-10-18T12:19:21;15.23;;;11.68;;
17606;SDS011;8922;52.240;20.980;2022-10-18T12:21:51;12.43;;;10.50;;
17606;SDS011;8922;52.240;20.980;2022-10-18T12:24:19;14.05;;;11.55;;
17606;SDS011;8922;52.240;20.980;2022-10-18T12:26:50;17.15;;;11.75;;
17606;SDS011;8922;52.240;20.980;2022-10-18T12:29:24;13.15;;;11.57;;
17606;SDS011;8922;52.240;20.980;2022-10-18T12:31:55;19.52;;;11.20;;
17606;SDS011;8922;52.240;20.980;2022-10-18T12:34:25;14.70;;;11.45;;
17606;SDS011;8922;52.240;20.980;2022-10-18T12:37:01;16.52;;;12.23;;
17606;SDS011;8922;52.240;20.980;2022-10-18T12:39:40;13.70;;;12.25;;
17606;SDS011;8922;52.240;20.980;2022-10-18T12:42:15;14.88;;;11.27;;
17606;SDS011;8922;52.240;20.980;2022-10-18T12:44:46;17.58;;;12.32;;
17606;SDS011;8922;52.240;20.980;2022-10-18T12:47:19;16.77;;;12.90;;
17606;SDS011;8922;52.240;20.980;2022-10-18T12:49:54;17.80;;;12.40;;
17606;SDS011;8922;52.240;20.980;2022-10-18T12:52:22;17.27;;;12.90;;
17606;SDS011;8922;52.240;20.980;2022-10-18T12:55:04;19.80;;;14.27;;
17606;SDS011;8922;52.240;20.980;2022-10-18T12:57:59;22.50;;;13.07;;
17606;SDS011;8922;52.240;20.980;2022-10-18T13:00:51;19.55;;;12.20;;
17606;SDS011;8922;52.240;20.980;2022-10-18T13:06:18;18.50;;;12.68;;
17606;SDS011;8922;52.240;20.980;2022-10-18T13:08:45;17.45;;;13.18;;
17606;SDS011;8922;52.240;20.980;2022-10-18T13:11:29;17.17;;;12.57;;
17606;SDS011;8922;52.240;20.980;2022-10-18T13:14:04;14.23;;;11.82;;
17606;SDS011;8922;52.240;20.980;2022-10-18T13:16:42;16.15;;;12.50;;
17606;SDS011;8922;52.240;20.980;2022-10-18T13:19:20;14.73;;;12.90;;
17606;SDS011;8922;52.240;20.980;2022-10-18T13:21:54;16.27;;;13.65;;
17606;SDS011;8922;52.240;20.980;2022-10-18T13:24:35;19.00;;;13.40;;
17606;SDS011;8922;52.240;20.980;2022-10-18T13:27:11;19.67;;;14.23;;
17606;SDS011;8922;52.240;20.980;2022-10-18T13:29:49;18.85;;;13.80;;
17606;SDS011;8922;52.240;20.980;2022-10-18T13:32:38;19.00;;;13.85;;
17606;SDS011;8922;52.240;20.980;2022-10-18T13:38:25;17.13;;;13.93;;
17606;SDS011;8922;52.240;20.980;2022-10-18T13:41:13;18.95;;;14.20;;
17606;SDS011;8922;52.240;20.980;2022-10-18T13:43:56;23.35;;;13.93;;
17606;SDS011;8922;52.240;20.980;2022-10-18T13:49:28;20.08;;;13.90;;
17606;SDS011;8922;52.240;20.980;2022-10-18T13:52:04;22.70;;;17.42;;
17606;SDS011;8922;52.240;20.980;2022-10-18T13:54:49;23.55;;;14.45;;
17606;SDS011;8922;52.240;20.980;2022-10-18T13:57:29;19.70;;;13.85;;
17606;SDS011;8922;52.240;20.980;2022-10-18T14:06:01;16.50;;;14.00;;
17606;SDS011;8922;52.240;20.980;2022-10-18T14:08:32;17.75;;;12.63;;
17606;SDS011;8922;52.240;20.980;2022-10-18T14:11:02;16.67;;;13.00;;
17606;SDS011;8922;52.240;20.980;2022-10-18T14:13:33;18.55;;;13.82;;
17606;SDS011;8922;52.240;20.980;2022-10-18T14:16:09;15.80;;;13.35;;
17606;SDS011;8922;52.240;20.980;2022-10-18T14:18:52;18.63;;;13.15;;
17606;SDS011;8922;52.240;20.980;2022-10-18T14:21:28;18.33;;;14.73;;
17606;SDS011;8922;52.240;20.980;2022-10-18T14:24:01;17.23;;;13.13;;
17606;SDS011;8922;52.240;20.980;2022-10-18T14:26:33;19.10;;;13.32;;
17606;SDS011;8922;52.240;20.980;2022-10-18T14:29:01;15.80;;;13.00;;
17606;SDS011;8922;52.240;20.980;2022-10-18T14:31:29;16.63;;;13.60;;
17606;SDS011;8922;52.240;20.980;2022-10-18T14:33:56;18.63;;;13.38;;
17606;SDS011;8922;52.240;20.980;2022-10-18T14:36:24;21.98;;;13.00;;
17606;SDS011;8922;52.240;20.980;2022-10-18T14:38:56;18.45;;;13.27;;
17606;SDS011;8922;52.240;20.980;2022-10-18T14:41:25;19.40;;;13.57;;
17606;SDS011;8922;52.240;20.980;2022-10-18T14:44:08;15.52;;;13.82;;
17606;SDS011;8922;52.240;20.980;2022-10-18T14:46:43;14.50;;;12.75;;
17606;SDS011;8922;52.240;20.980;2022-10-18T14:49:12;16.42;;;13.02;;
17606;SDS011;8922;52.240;20.980;2022-10-18T14:51:40;18.77;;;13.57;;
17606;SDS011;8922;52.240;20.980;2022-10-18T14:54:12;19.13;;;14.50;;
17606;SDS011;8922;52.240;20.980;2022-10-18T14:56:41;16.90;;;13.57;;
17606;SDS011;8922;52.240;20.980;2022-10-18T14:59:10;17.38;;;13.10;;
17606;SDS011;8922;52.240;20.980;2022-10-18T15:01:50;21.52;;;15.73;;
17606;SDS011;8922;52.240;20.980;2022-10-18T15:04:18;26.17;;;14.40;;
17606;SDS011;8922;52.240;20.980;2022-10-18T15:06:47;16.33;;;13.63;;
17606;SDS011;8922;52.240;20.980;2022-10-18T15:09:15;21.58;;;14.60;;
17606;SDS011;8922;52.240;20.980;2022-10-18T15:11:47;17.55;;;14.75;;
17606;SDS011;8922;52.240;20.980;2022-10-18T15:14:15;17.05;;;13.52;;
17606;SDS011;8922;52.240;20.980;2022-10-18T15:16:47;19.58;;;13.75;;
17606;SDS011;8922;52.240;20.980;2022-10-18T15:19:30;20.58;;;13.35;;
17606;SDS011;8922;52.240;20.980;2022-10-18T15:21:59;11.45;;;8.18;;
17606;SDS011;8922;52.240;20.980;2022-10-18T15:24:29;13.00;;;7.55;;